sensor_id;sensor_type;location;lat;lon;timestamp;temperature;humidity
16728;DHT22;8482;54.396;18.590;2024-02-23T20:47:10;7.80;99.90
16728;DHT22;8482;54.396;18.590;2024-02-23T20:49:36;7.70;99.90
16728;DHT22;8482;54.396;18.590;2024-02-23T20:52:01;7.80;99.90
16728;DHT22;8482;54.396;18.590;2024-02-23T20:54:27;7.80;99.90
16728;DHT22;8482;54.396;18.590;2024-02-23T20:56:54;7.80;99.90
16728;DHT22;8482;54.396;18.590;2024-02-23T20:59:19;7.80;99.90
16728;DHT22;8482;54.396;18.590;2024-02-23T21:01:45;7.80;99.90
16728;DHT22;8482;54.396;18.590;2024-02-23T21:04:11;7.80;99.90
16728;DHT22;8482;54.396;18.590;2024-02-23T21:06:37;7.80;99.90
16728;DHT22;8482;54.396;18.590;2024-02-23T21:09:03;7.80;99.90
16728;DHT22;8482;54.396;18.590;2024-02-23T21:11:29;7.80;99.90
16728;DHT22;8482;54.396;18.590;2024-02-23T21:13:55;7.80;99.90
16728;DHT22;8482;54.396;18.590;2024-02-23T21:16:21;7.80;99.90
16728;DHT22;8482;54.396;18.590;2024-02-23T21:18:47;7.80;99.90
16728;DHT22;8482;54.396;18.590;2024-02-23T21:21:13;7.80;99.90
16728;DHT22;8482;54.396;18.590;2024-02-23T21:23:46;7.80;99.90
16728;DHT22;8482;54.396;18.590;2024-02-23T21:26:12;7.80;99.90
16728;DHT22;8482;54.396;18.590;2024-02-23T21:28:38;7.80;99.90
16728;DHT22;8482;54.396;18.590;2024-02-23T21:31:04;7.80;99.90
16728;DHT22;8482;54.396;18.590;2024-02-23T21:33:30;7.80;99.90
16728;DHT22;8482;54.396;18.590;2024-02-23T21:35:57;7.80;99.90
16728;DHT22;8482;54.396;18.590;2024-02-23T21:38:23;7.80;99.90
16728;DHT22;8482;54.396;18.590;2024-02-23T21:40:49;7.80;99.90
16728;DHT22;8482;54.396;18.590;2024-02-23T21:43:15;7.80;99.90
16728;DHT22;8482;54.396;18.590;2024-02-23T21:45:41;7.80;99.90
16728;DHT22;8482;54.396;18.590;2024-02-23T21:48:07;7.80;99.90
16728;DHT22;8482;54.396;18.590;2024-02-23T21:50:33;7.80;99.90
16728;DHT22;8482;54.396;18.590;2024-02-23T21:52:59;7.80;99.90
16728;DHT22;8482;54.396;18.590;2024-02-23T21:55:25;7.80;99.90
16728;DHT22;8482;54.396;18.590;2024-02-23T21:57:52;7.80;99.90
16728;DHT22;8482;54.396;18.590;2024-02-23T22:00:18;7.80;99.90
16728;DHT22;8482;54.396;18.590;2024-02-23T22:02:45;7.80;99.90
16728;DHT22;8482;54.396;18.590;2024-02-23T22:05:11;7.80;99.90
16728;DHT22;8482;54.396;18.590;2024-02-23T22:07:37;7.80;99.90
16728;DHT22;8482;54.396;18.590;2024-02-23T22:10:03;7.80;99.90
16728;DHT22;8482;54.396;18.590;2024-02-23T22:12:30;7.80;99.90
16728;DHT22;8482;54.396;18.590;2024-02-23T22:14:56;7.80;99.90
16728;DHT22;8482;54.396;18.590;2024-02-23T22:17:28;7.90;99.90
16728;DHT22;8482;54.396;18.590;2024-02-23T22:19:55;7.90;99.90
16728;DHT22;8482;54.396;18.590;2024-02-23T22:22:23;7.90;99.90
16728;DHT22;8482;54.396;18.590;2024-02-23T22:24:49;7.90;99.90
16728;DHT22;8482;54.396;18.590;2024-02-23T22:27:15;7.90;99.90
16728;DHT22;8482;54.396;18.590;2024-02-23T22:29:41;8.00;99.90
16728;DHT22;8482;54.396;18.590;2024-02-23T22:32:07;8.00;99.90
16728;DHT22;8482;54.396;18.590;2024-02-23T22:34:33;8.00;99.90
16728;DHT22;8482;54.396;18.590;2024-02-23T22:36:58;8.10;99.90
16728;DHT22;8482;54.396;18.590;2024-02-23T22:39:24;8.10;99.90
16728;DHT22;8482;54.396;18.590;2024-02-23T22:41:50;8.20;99.90
16728;DHT22;8482;54.396;18.590;2024-02-23T22:44:16;8.20;99.90
16728;DHT22;8482;54.396;18.590;2024-02-23T22:46:42;8.20;99.90
16728;DHT22;8482;54.396;18.590;2024-02-23T22:49:08;8.30;99.90
16728;DHT22;8482;54.396;18.590;2024-02-23T22:51:33;8.30;99.90
16728;DHT22;8482;54.396;18.590;2024-02-23T22:54:00;8.40;99.90
16728;DHT22;8482;54.396;18.590;2024-02-23T22:56:26;8.40;99.90
16728;DHT22;8482;54.396;18.590;2024-02-23T22:58:52;8.40;99.90
16728;DHT22;8482;54.396;18.590;2024-02-23T23:01:18;8.40;99.90
16728;DHT22;8482;54.396;18.590;2024-02-23T23:03:44;8.40;99.90
16728;DHT22;8482;54.396;18.590;2024-02-23T23:06:09;8.40;99.90
16728;DHT22;8482;54.396;18.590;2024-02-23T23:08:35;8.40;99.90
16728;DHT22;8482;54.396;18.590;2024-02-23T23:11:01;8.40;99.90
16728;DHT22;8482;54.396;18.590;2024-02-23T23:13:27;8.40;99.90
16728;DHT22;8482;54.396;18.590;2024-02-23T23:15:53;8.40;99.90
16728;DHT22;8482;54.396;18.590;2024-02-23T23:18:18;8.50;99.90
16728;DHT22;8482;54.396;18.590;2024-02-23T23:20:44;8.40;99.90
16728;DHT22;8482;54.396;18.590;2024-02-23T23:23:10;8.50;99.90
16728;DHT22;8482;54.396;18.590;2024-02-23T23:25:36;8.50;99.90
